createdAt,value
2022-09-25T00:00:14.346Z,13.98
2022-09-25T00:02:59.748Z,13.88
2022-09-25T00:05:45.977Z,13.99
2022-09-25T00:08:31.724Z,13.99
2022-09-25T00:11:25.405Z,14.07
2022-09-25T00:14:10.611Z,14.00
2022-09-25T00:16:56.124Z,13.97
2022-09-25T00:19:50.170Z,13.81
2022-09-25T00:22:35.761Z,13.86
2022-09-25T00:25:21.330Z,13.97
2022-09-25T00:28:07.112Z,13.94
2022-09-25T00:30:52.743Z,13.98
2022-09-25T00:33:38.386Z,14.01
2022-09-25T00:36:23.968Z,13.86
2022-09-25T00:39:09.773Z,13.72
2022-09-25T00:41:55.329Z,13.88
2022-09-25T00:44:52.092Z,13.83
2022-09-25T00:47:51.281Z,13.86
2022-09-25T00:50:44.952Z,13.98
2022-09-25T00:53:34.708Z,13.90
2022-09-25T00:56:20.341Z,13.89
2022-09-25T00:59:10.325Z,13.73
2022-09-25T01:01:56.757Z,13.72
2022-09-25T01:04:46.080Z,13.89
2022-09-25T01:07:39.250Z,13.88
2022-09-25T01:10:24.788Z,13.94
2022-09-25T01:13:11.345Z,13.84
2022-09-25T01:16:04.148Z,13.90
2022-09-25T01:19:22.312Z,13.87
2022-09-25T01:22:26.868Z,13.94
2022-09-25T01:25:26.135Z,13.99
2022-09-25T01:28:24.143Z,13.99
2022-09-25T01:31:18.244Z,13.93
2022-09-25T01:34:56.511Z,13.97
2022-09-25T01:37:52.536Z,14.00
2022-09-25T01:40:59.279Z,13.94
2022-09-25T01:43:58.426Z,13.93
2022-09-25T01:46:51.543Z,14.04
2022-09-25T01:49:44.509Z,14.07
2022-09-25T01:52:43.036Z,13.99
2022-09-25T01:55:41.021Z,14.02
2022-09-25T01:58:34.550Z,13.96
2022-09-25T02:01:25.844Z,14.01
2022-09-25T02:04:24.983Z,14.00
2022-09-25T02:07:16.960Z,14.03
2022-09-25T02:10:08.311Z,13.84
2022-09-25T02:12:58.568Z,14.00
2022-09-25T02:15:49.976Z,14.04
2022-09-25T02:18:55.029Z,14.03
2022-09-25T02:21:54.960Z,13.99
2022-09-25T02:24:58.906Z,13.84
2022-09-25T02:27:45.775Z,13.82
2022-09-25T02:30:31.626Z,13.99
2022-09-25T02:33:17.297Z,13.77
2022-09-25T02:36:04.834Z,13.85
2022-09-25T02:38:53.292Z,13.85
2022-09-25T02:41:54.432Z,13.86
2022-09-25T02:45:23.586Z,13.84
2022-09-25T02:48:28.607Z,13.93
2022-09-25T02:51:28.356Z,13.94
2022-09-25T02:54:31.483Z,13.90
2022-09-25T02:57:29.328Z,13.84
2022-09-25T03:00:15.105Z,13.91
2022-09-25T03:03:03.878Z,13.98
2022-09-25T03:05:52.346Z,13.95
2022-09-25T03:08:43.583Z,13.87
2022-09-25T03:11:28.955Z,13.99
2022-09-25T03:14:14.285Z,13.80
2022-09-25T03:17:04.780Z,13.76
2022-09-25T03:19:50.342Z,13.90
2022-09-25T03:22:37.506Z,13.99
2022-09-25T03:25:22.824Z,14.02
2022-09-25T03:28:12.118Z,14.06
2022-09-25T03:31:07.981Z,14.01
2022-09-25T03:33:53.404Z,14.04
2022-09-25T03:36:39.253Z,14.08
2022-09-25T03:39:24.530Z,14.02
2022-09-25T03:42:10.239Z,13.95
2022-09-25T03:44:55.711Z,13.99
2022-09-25T03:47:41.238Z,13.98
2022-09-25T03:50:27.628Z,14.03
2022-09-25T03:53:13.194Z,14.00
2022-09-25T03:55:58.621Z,13.95
2022-09-25T03:58:44.437Z,14.03
2022-09-25T04:01:29.948Z,14.02
2022-09-25T04:04:15.308Z,13.92
2022-09-25T04:07:00.918Z,13.93
2022-09-25T04:09:46.294Z,14.08
2022-09-25T04:12:31.797Z,14.02
2022-09-25T04:15:17.872Z,14.04
2022-09-25T04:18:06.159Z,13.96
2022-09-25T04:20:51.927Z,14.08
2022-09-25T04:23:38.189Z,14.04
2022-09-25T04:26:23.738Z,14.05
2022-09-25T04:29:09.188Z,14.02
2022-09-25T04:32:13.532Z,14.01
2022-09-25T04:34:59.321Z,13.86
2022-09-25T04:37:44.655Z,14.00
2022-09-25T04:40:30.974Z,14.07
2022-09-25T04:43:16.468Z,14.12
2022-09-25T04:46:07.903Z,14.08
2022-09-25T04:48:53.491Z,14.08
2022-09-25T04:51:39.264Z,14.00
2022-09-25T04:54:24.629Z,13.94
2022-09-25T04:57:11.287Z,13.93
2022-09-25T04:59:57.406Z,14.00
2022-09-25T05:02:43.088Z,13.86
2022-09-25T05:05:30.467Z,13.90
2022-09-25T05:08:16.228Z,13.91
2022-09-25T05:11:01.725Z,14.01
2022-09-25T05:13:51.293Z,13.92
2022-09-25T05:16:36.930Z,13.92
2022-09-25T05:19:22.156Z,14.02
2022-09-25T05:22:07.879Z,13.83
2022-09-25T05:24:58.662Z,13.61
2022-09-25T05:27:44.375Z,13.78
2022-09-25T05:30:32.080Z,13.80
2022-09-25T05:33:18.948Z,13.73
2022-09-25T05:36:06.231Z,13.84
2022-09-25T05:38:51.911Z,13.68
2022-09-25T05:41:37.724Z,13.67
2022-09-25T05:44:24.882Z,13.65
2022-09-25T05:47:10.496Z,13.61
2022-09-25T05:49:56.498Z,13.67
2022-09-25T05:52:41.830Z,13.69
2022-09-25T05:55:27.965Z,13.68
2022-09-25T05:58:13.530Z,13.87
2022-09-25T06:01:06.035Z,13.91
2022-09-25T06:03:51.364Z,13.98
2022-09-25T06:06:36.653Z,13.93
2022-09-25T06:09:22.140Z,13.86
2022-09-25T06:12:07.851Z,13.92
2022-09-25T06:14:53.457Z,13.81
2022-09-25T06:17:39.144Z,14.09
2022-09-25T06:20:25.154Z,14.11
2022-09-25T06:23:10.918Z,14.08
2022-09-25T06:26:04.339Z,14.02
2022-09-25T06:28:50.022Z,14.18
2022-09-25T06:31:35.402Z,14.33
2022-09-25T06:34:21.075Z,14.44
2022-09-25T06:37:06.727Z,14.65
2022-09-25T06:39:52.355Z,14.59
2022-09-25T06:42:38.394Z,14.54
2022-09-25T06:45:24.595Z,14.43
2022-09-25T06:48:13.127Z,14.54
2022-09-25T06:50:59.685Z,14.58
2022-09-25T06:53:45.621Z,14.50
2022-09-25T06:56:30.902Z,14.47
2022-09-25T06:59:16.886Z,14.46
2022-09-25T07:02:22.542Z,14.48
2022-09-25T07:05:09.120Z,14.55
2022-09-25T07:07:55.765Z,14.56
2022-09-25T07:10:47.363Z,14.33
2022-09-25T07:13:35.936Z,14.58
2022-09-25T07:16:24.135Z,14.66
2022-09-25T07:19:09.567Z,14.69
2022-09-25T07:21:55.336Z,14.77
2022-09-25T07:24:40.367Z,14.61
2022-09-25T07:27:25.940Z,14.78
2022-09-25T07:30:11.370Z,14.75
2022-09-25T07:33:00.097Z,14.79
2022-09-25T07:35:46.095Z,14.72
2022-09-25T07:38:31.726Z,14.63
2022-09-25T07:41:18.865Z,14.77
2022-09-25T07:44:28.030Z,14.76
2022-09-25T07:47:13.462Z,14.54
2022-09-25T07:49:59.278Z,14.40
2022-09-25T07:52:44.790Z,14.50
2022-09-25T07:55:30.426Z,14.51
2022-09-25T07:58:15.998Z,14.48
2022-09-25T08:01:04.576Z,14.66
2022-09-25T08:03:49.926Z,14.68
2022-09-25T08:06:35.531Z,14.89
2022-09-25T08:09:21.106Z,15.00
2022-09-25T08:12:09.980Z,14.93
2022-09-25T08:14:55.224Z,14.73
2022-09-25T08:17:41.577Z,14.87
2022-09-25T08:20:27.213Z,14.96
2022-09-25T08:23:12.765Z,14.90
2022-09-25T08:25:59.163Z,14.84
2022-09-25T08:28:44.624Z,14.92
2022-09-25T08:31:30.029Z,14.91
2022-09-25T08:34:39.530Z,14.86
2022-09-25T08:37:21.730Z,14.85
2022-09-25T08:40:17.725Z,14.66
2022-09-25T08:43:04.610Z,14.85
2022-09-25T08:46:10.175Z,14.71
2022-09-25T08:49:05.841Z,14.67
2022-09-25T08:51:53.835Z,14.69
2022-09-25T08:54:42.087Z,14.71
2022-09-25T08:57:34.876Z,14.57
2022-09-25T09:00:22.904Z,14.79
2022-09-25T09:03:10.677Z,14.97
2022-09-25T09:06:05.700Z,14.95
2022-09-25T09:08:58.305Z,14.95
2022-09-25T09:11:58.617Z,14.93
2022-09-25T09:14:48.016Z,14.90
2022-09-25T09:17:41.285Z,14.86
2022-09-25T09:20:42.987Z,14.85
2022-09-25T09:23:58.813Z,14.75
2022-09-25T09:27:14.529Z,15.03
2022-09-25T09:30:20.824Z,15.05
2022-09-25T09:33:35.642Z,15.19
2022-09-25T09:36:39.735Z,15.64
2022-09-25T09:39:25.273Z,15.59
2022-09-25T09:42:17.470Z,15.60
2022-09-25T09:45:31.531Z,16.09
2022-09-25T09:48:36.641Z,15.94
2022-09-25T09:51:27.930Z,15.85
2022-09-25T09:54:21.205Z,16.27
2022-09-25T09:57:35.027Z,16.08
2022-09-25T10:00:22.946Z,16.31
2022-09-25T10:03:23.558Z,16.60
2022-09-25T10:06:16.229Z,16.39
2022-09-25T10:09:04.505Z,16.36
2022-09-25T10:12:01.786Z,16.65
2022-09-25T10:14:48.183Z,16.50
2022-09-25T10:17:36.030Z,16.83
2022-09-25T10:20:23.683Z,16.64
2022-09-25T10:23:38.846Z,16.64
2022-09-25T10:26:38.479Z,16.66
2022-09-25T10:29:27.640Z,17.12
2022-09-25T10:32:13.313Z,16.66
2022-09-25T10:34:59.504Z,16.51
2022-09-25T10:37:50.865Z,16.77
2022-09-25T10:40:38.534Z,16.58
2022-09-25T10:43:24.219Z,16.32
2022-09-25T10:46:14.064Z,16.31
2022-09-25T10:49:32.896Z,16.52
2022-09-25T10:52:22.136Z,16.36
2022-09-25T10:55:25.340Z,16.32
2022-09-25T10:58:10.568Z,16.18
2022-09-25T11:00:59.305Z,16.47
2022-09-25T11:04:10.572Z,16.62
2022-09-25T11:07:00.346Z,16.23
2022-09-25T11:09:45.740Z,16.36
2022-09-25T11:12:32.449Z,16.52
2022-09-25T11:15:23.575Z,16.64
2022-09-25T11:18:41.251Z,16.56
2022-09-25T11:21:36.054Z,16.62
2022-09-25T11:24:29.856Z,17.10
2022-09-25T11:27:43.703Z,17.13
2022-09-25T11:30:39.405Z,17.32
2022-09-25T11:33:43.356Z,17.41
2022-09-25T11:36:56.848Z,16.68
2022-09-25T11:40:08.359Z,16.66
2022-09-25T11:43:04.423Z,16.71
2022-09-25T11:46:07.498Z,16.56
2022-09-25T11:49:19.047Z,16.51
2022-09-25T11:52:20.177Z,16.47
2022-09-25T11:55:42.832Z,16.62
2022-09-25T11:58:45.840Z,16.75
2022-09-25T12:01:37.706Z,17.17
2022-09-25T12:04:46.516Z,17.05
2022-09-25T12:07:56.594Z,16.76
2022-09-25T12:11:01.612Z,16.82
2022-09-25T12:14:13.972Z,16.75
2022-09-25T12:17:23.892Z,16.31
2022-09-25T12:20:23.567Z,15.92
2022-09-25T12:23:23.522Z,15.67
2022-09-25T12:26:21.745Z,15.61
2022-09-25T12:29:46.258Z,15.58
2022-09-25T12:32:58.642Z,15.57
2022-09-25T12:35:52.635Z,15.51
2022-09-25T12:38:59.910Z,15.72
2022-09-25T12:41:51.914Z,15.71
2022-09-25T12:44:54.839Z,15.63
2022-09-25T12:47:50.892Z,15.37
2022-09-25T12:50:43.800Z,15.49
2022-09-25T12:53:43.100Z,15.27
2022-09-25T12:56:45.415Z,15.19
2022-09-25T12:59:52.861Z,15.30
2022-09-25T13:02:47.945Z,15.12
2022-09-25T13:05:37.832Z,15.05
2022-09-25T13:08:33.730Z,14.96
2022-09-25T13:11:38.964Z,14.96
2022-09-25T13:14:39.815Z,15.05
2022-09-25T13:17:25.407Z,14.91
2022-09-25T13:20:29.513Z,15.12
2022-09-25T13:23:27.238Z,15.11
2022-09-25T13:26:24.318Z,14.81
2022-09-25T13:29:35.334Z,14.67
2022-09-25T13:32:23.362Z,14.78
2022-09-25T13:35:20.465Z,14.55
2022-09-25T13:38:37.704Z,14.72
2022-09-25T13:41:23.544Z,14.71
2022-09-25T13:44:57.052Z,14.80
2022-09-25T13:48:06.053Z,14.83
2022-09-25T13:51:18.658Z,15.07
2022-09-25T13:54:25.655Z,15.32
2022-09-25T13:57:13.072Z,15.80
2022-09-25T14:00:03.633Z,16.12
2022-09-25T14:02:50.428Z,16.82
2022-09-25T14:05:37.168Z,17.18
2022-09-25T14:08:23.661Z,17.03
2022-09-25T14:11:14.497Z,16.93
2022-09-25T14:14:04.649Z,17.28
2022-09-25T14:16:51.943Z,17.28
2022-09-25T14:19:41.311Z,17.52
2022-09-25T14:22:36.192Z,17.66
2022-09-25T14:25:33.825Z,17.74
2022-09-25T14:28:27.713Z,18.03
2022-09-25T14:31:34.943Z,20.53
2022-09-25T14:34:43.396Z,21.48
2022-09-25T14:38:07.359Z,23.56
2022-09-25T14:41:22.465Z,25.09
2022-09-25T14:44:41.758Z,27.92
2022-09-25T14:47:44.430Z,25.82
2022-09-25T14:50:35.820Z,24.18
2022-09-25T14:53:39.915Z,21.22
2022-09-25T14:56:26.358Z,21.28
2022-09-25T14:59:16.556Z,19.53
2022-09-25T15:02:03.491Z,18.28
2022-09-25T15:04:49.295Z,17.20
2022-09-25T15:07:42.573Z,16.64
2022-09-25T15:10:38.651Z,16.36
2022-09-25T15:13:24.270Z,16.39
2022-09-25T15:16:47.461Z,16.56
2022-09-25T15:19:38.738Z,15.96
2022-09-25T15:22:28.297Z,16.58
2022-09-25T15:25:27.233Z,19.93
2022-09-25T15:28:16.299Z,21.35
2022-09-25T15:31:04.287Z,20.33
2022-09-25T15:34:10.974Z,18.54
2022-09-25T15:37:17.115Z,17.46
2022-09-25T15:40:27.865Z,17.02
2022-09-25T15:43:16.280Z,16.20
2022-09-25T15:46:08.002Z,15.96
2022-09-25T15:48:58.637Z,15.72
2022-09-25T15:51:52.702Z,15.62
2022-09-25T15:54:44.530Z,15.43
2022-09-25T15:57:32.044Z,15.67
2022-09-25T16:00:40.007Z,15.67
2022-09-25T16:03:49.497Z,15.37
2022-09-25T16:06:40.359Z,15.11
2022-09-25T16:09:47.067Z,14.72
2022-09-25T16:12:47.651Z,14.61
2022-09-25T16:15:44.509Z,14.24
2022-09-25T16:18:39.586Z,14.04
2022-09-25T16:21:29.835Z,14.14
2022-09-25T16:24:21.166Z,13.87
2022-09-25T16:27:07.427Z,13.61
2022-09-25T16:29:55.633Z,13.54
2022-09-25T16:32:49.110Z,13.59
2022-09-25T16:36:05.351Z,13.43
2022-09-25T16:39:04.004Z,13.26
2022-09-25T16:41:50.412Z,13.22
2022-09-25T16:44:40.163Z,13.00
2022-09-25T16:47:28.861Z,13.16
2022-09-25T16:50:14.861Z,12.91
2022-09-25T16:53:03.509Z,12.81
2022-09-25T16:55:51.018Z,12.69
2022-09-25T16:58:37.446Z,12.63
2022-09-25T17:01:26.016Z,12.51
2022-09-25T17:04:14.045Z,12.33
2022-09-25T17:06:59.695Z,12.32
2022-09-25T17:09:45.407Z,12.31
2022-09-25T17:12:31.447Z,12.18
2022-09-25T17:15:27.450Z,11.99
2022-09-25T17:18:21.281Z,12.04
2022-09-25T17:21:15.301Z,11.98
2022-09-25T17:24:01.120Z,12.00
2022-09-25T17:26:47.368Z,11.91
2022-09-25T17:29:32.787Z,11.61
2022-09-25T17:32:18.180Z,11.80
2022-09-25T17:35:14.766Z,11.73
2022-09-25T17:38:01.456Z,11.65
2022-09-25T17:40:48.612Z,11.61
2022-09-25T17:43:34.284Z,11.54
2022-09-25T17:46:20.304Z,11.55
2022-09-25T17:49:06.038Z,11.64
2022-09-25T17:51:52.496Z,11.57
2022-09-25T17:54:38.045Z,11.60
2022-09-25T17:57:23.342Z,11.58
2022-09-25T18:00:10.087Z,11.66
2022-09-25T18:02:55.715Z,11.57
2022-09-25T18:05:42.751Z,11.59
2022-09-25T18:08:28.474Z,11.47
2022-09-25T18:11:15.386Z,11.49
2022-09-25T18:14:02.002Z,11.40
2022-09-25T18:16:47.372Z,11.37
2022-09-25T18:19:51.440Z,11.36
2022-09-25T18:22:38.097Z,11.34
2022-09-25T18:25:24.213Z,11.21
2022-09-25T18:28:09.572Z,11.04
2022-09-25T18:30:56.747Z,10.98
2022-09-25T18:33:47.156Z,10.92
2022-09-25T18:36:32.933Z,10.88
2022-09-25T18:39:20.502Z,10.86
2022-09-25T18:42:06.156Z,10.74
2022-09-25T18:44:51.482Z,10.80
2022-09-25T18:47:36.827Z,10.76
2022-09-25T18:50:22.738Z,10.65
2022-09-25T18:53:08.071Z,10.62
2022-09-25T18:55:59.388Z,10.59
2022-09-25T18:58:44.878Z,10.54
2022-09-25T19:01:30.397Z,10.49
2022-09-25T19:04:16.897Z,10.58
2022-09-25T19:07:02.701Z,10.41
2022-09-25T19:09:48.502Z,10.47
2022-09-25T19:12:34.076Z,10.45
2022-09-25T19:15:19.357Z,10.37
2022-09-25T19:18:06.602Z,10.30
2022-09-25T19:20:55.743Z,10.19
2022-09-25T19:23:47.662Z,10.24
2022-09-25T19:26:33.304Z,10.08
2022-09-25T19:29:18.884Z,10.11
2022-09-25T19:32:05.822Z,10.08
2022-09-25T19:34:51.853Z,10.05
2022-09-25T19:37:38.168Z,10.08
2022-09-25T19:40:39.527Z,10.03
2022-09-25T19:43:25.251Z,9.98
2022-09-25T19:46:17.073Z,9.82
2022-09-25T19:49:02.550Z,9.91
2022-09-25T19:51:47.922Z,9.87
2022-09-25T19:54:34.079Z,9.79
2022-09-25T19:57:19.769Z,9.82
2022-09-25T20:00:06.011Z,9.84
2022-09-25T20:02:51.546Z,9.73
2022-09-25T20:05:41.575Z,9.76
2022-09-25T20:08:27.092Z,9.66
2022-09-25T20:11:20.008Z,9.73
2022-09-25T20:14:06.238Z,9.55
2022-09-25T20:16:53.565Z,9.68
2022-09-25T20:19:39.086Z,9.64
2022-09-25T20:22:24.745Z,9.57
2022-09-25T20:25:11.008Z,9.55
2022-09-25T20:27:56.219Z,9.45
2022-09-25T20:30:41.697Z,9.51
2022-09-25T20:33:33.902Z,9.50
2022-09-25T20:36:20.845Z,9.46
2022-09-25T20:39:07.273Z,9.38
2022-09-25T20:41:52.820Z,9.38
2022-09-25T20:44:38.429Z,9.31
2022-09-25T20:47:24.132Z,9.23
2022-09-25T20:50:10.117Z,9.31
2022-09-25T20:52:56.621Z,9.23
2022-09-25T20:55:42.382Z,9.23
2022-09-25T20:58:28.953Z,9.25
2022-09-25T21:01:17.108Z,9.27
2022-09-25T21:04:04.925Z,9.15
2022-09-25T21:06:50.396Z,9.25
2022-09-25T21:09:35.877Z,9.20
2022-09-25T21:12:21.562Z,9.10
2022-09-25T21:15:07.265Z,9.02
2022-09-25T21:17:54.132Z,9.09
2022-09-25T21:20:40.417Z,9.05
2022-09-25T21:23:25.849Z,8.95
2022-09-25T21:26:13.777Z,8.99
2022-09-25T21:29:04.305Z,8.99
2022-09-25T21:31:50.952Z,8.86
2022-09-25T21:34:37.003Z,8.71
2022-09-25T21:37:22.293Z,8.84
2022-09-25T21:40:08.567Z,8.81
2022-09-25T21:42:54.801Z,8.73
2022-09-25T21:45:40.123Z,8.65
2022-09-25T21:48:26.827Z,8.80
2022-09-25T21:51:13.442Z,8.80
2022-09-25T21:54:00.911Z,8.76
2022-09-25T21:56:48.581Z,8.83
2022-09-25T21:59:33.917Z,8.74
2022-09-25T22:02:19.727Z,8.82
2022-09-25T22:05:05.363Z,8.98
2022-09-25T22:07:50.689Z,8.74
2022-09-25T22:10:36.014Z,8.77
2022-09-25T22:13:21.600Z,8.70
2022-09-25T22:16:12.861Z,8.71
2022-09-25T22:19:02.914Z,8.70
2022-09-25T22:21:50.056Z,8.69
2022-09-25T22:24:36.125Z,8.58
2022-09-25T22:27:21.869Z,8.55
2022-09-25T22:30:07.665Z,8.69
2022-09-25T22:32:53.060Z,8.63
2022-09-25T22:35:38.893Z,8.74
2022-09-25T22:38:24.180Z,8.73
2022-09-25T22:41:12.577Z,8.73
2022-09-25T22:44:00.678Z,8.77
2022-09-25T22:46:47.146Z,8.75
2022-09-25T22:49:32.685Z,8.77
2022-09-25T22:52:18.455Z,8.72
2022-09-25T22:55:03.928Z,8.72
2022-09-25T22:57:50.060Z,8.53
2022-09-25T23:00:35.752Z,8.60
2022-09-25T23:03:23.389Z,8.58
2022-09-25T23:06:10.509Z,8.58
2022-09-25T23:08:58.181Z,8.50
2022-09-25T23:11:44.331Z,8.45
2022-09-25T23:14:31.431Z,8.34
2022-09-25T23:17:17.029Z,8.24
2022-09-25T23:20:02.781Z,8.41
2022-09-25T23:22:48.505Z,8.23
2022-09-25T23:25:34.432Z,8.34
2022-09-25T23:28:20.174Z,8.16
2022-09-25T23:31:16.401Z,8.29
2022-09-25T23:34:02.236Z,8.23
2022-09-25T23:36:47.794Z,8.33
2022-09-25T23:39:33.549Z,8.36
2022-09-25T23:42:19.210Z,8.34
2022-09-25T23:45:04.912Z,8.38
2022-09-25T23:47:50.229Z,8.39
2022-09-25T23:50:35.869Z,8.35
2022-09-25T23:53:21.451Z,8.51
2022-09-25T23:56:08.988Z,8.61
2022-09-25T23:58:56.789Z,8.44
